LIPO METAR and TAF | Updated Today

LIPO METAR

Brescia Airport

Observation time: 25 min. ago

LIPO 291120Z AUTO 09008KT 9999 OVC060/// 18/08 Q1007

Need help? Read our tutorial on how to read METARs or read the parsed version below.

Brescia Airport (LIPO) METAR

  • Weather conditions on Sun, 29 May 2022 11:20:00 +0000 (25 min. ago):
  • Present conditions: Dry
  • Clouds: Overcast sky at 1829 meters
  • Visibility: Greater than 10 km
  • Wind: 90 degrees at 8 knots
  • Temperature: 18 celsius
  • Dew point: 8 celsius
  • Pressure: 1007 millibars
  • Remarks: None


Useful to know...

LIPO TAF

Brescia Airport

TAF LIPO 290500Z 2906/3006 10012KT 9999 SCT040 TEMPO 2906/2909 RA BECMG 2922/2924 VRB05KT
Observation time: 6:45 hr. ago
Need help? Read our tutorial on how to read TAFs or read the parsed version below.

Parsed version of TAF for Brescia Airport (LIPO)

  • From 29 May at 06:00 UTC, to day 30 of the month at 06:00 UTC
  • Clouds: Scattered at 1219 meters
  • Visibility: Greater than 10 km
  • Wind: 100 degrees at 12
  • Expected to arise temporarily, from 29 May at 06:00 UTC, to day 29 of the month at 09:00 UTC
  • Other: Rain
  • Expected to arise soon, from 29 May at 22:00 UTC, to day 29 of the month at 24:00 UTC
  • Wind: Variable at 5